Time;durP1;ratioP1;P1;durP2;ratioP2;P2;SDS_P1;SDS_P2;PMS_P1;PMS_P2;Temp;Humidity;BMP_temperature;BMP_pressure;BME280_temperature;BME280_humidity;BME280_pressure;Samples;Min_cycle;Max_cycle;Signal;HPM_P1;HPM_P2
2023/05/03 00:01:56;;;;;;;;;;;;;;;11.09;47.65;102214.53;4112097;28;20025;-66
2023/05/03 00:03:58;;;;;;;;;;;;;;;10.99;47.52;102197.50;4113566;28;19969;-66
2023/05/03 00:06:08;;;;;;;;;;;;;;;11.05;47.48;102214.97;4110520;28;20034;-66
2023/05/03 00:08:11;;;;;;;;;;;;;;;11.01;47.53;102214.41;4112253;28;19930;-66
2023/05/03 00:10:15;;;;;;;;;;;;;;;10.99;47.78;102217.25;4115136;28;20021;-66
2023/05/03 00:12:18;;;;;;;;;;;;;;;11.00;47.83;102216.28;4112485;28;20017;-66
2023/05/03 00:14:20;;;;;;;;;;;;;;;10.99;47.52;102213.72;4111633;28;20041;-66
2023/05/03 00:16:22;;;;;;;;;;;;;;;10.97;47.69;102221.97;4113105;28;20053;-65
2023/05/03 00:18:24;;;;;;;;;;;;;;;10.97;47.91;102221.97;4113614;28;20060;-66
2023/05/03 00:20:26;;;;;;;;;;;;;;;10.93;47.51;102223.22;4112994;28;20061;-65
2023/05/03 00:22:29;;;;;;;;;;;;;;;10.92;47.82;102217.97;4112892;28;20525;-66
2023/05/03 00:24:34;;;;;;;;;;;;;;;10.91;48.00;102214.41;4114745;28;20373;-65
2023/05/03 00:26:38;;;;;;;;;;;;;;;10.92;47.95;102212.56;4112685;28;20029;-65
2023/05/03 00:28:42;;;;;;;;;;;;;;;10.92;47.94;102213.41;4113282;28;19934;-65
2023/05/03 00:30:44;;;;;;;;;;;;;;;10.90;47.79;102209.16;4111145;28;20449;-66
2023/05/03 00:32:47;;;;;;;;;;;;;;;10.87;47.81;102214.84;4103529;28;19926;-65
2023/05/03 00:34:52;;;;;;;;;;;;;;;10.86;47.82;102219.41;4113458;28;19930;-66
2023/05/03 00:36:54;;;;;;;;;;;;;;;10.86;47.76;102221.25;4119999;28;20049;-65
2023/05/03 00:38:56;;;;;;;;;;;;;;;10.82;47.73;102213.41;4111822;28;20017;-65
2023/05/03 00:40:58;;;;;;;;;;;;;;;10.76;47.72;102219.38;4112708;28;20032;-65
2023/05/03 00:43:01;;;;;;;;;;;;;;;10.70;47.79;102213.72;4107592;28;20504;-65
2023/05/03 00:45:05;;;;;;;;;;;;;;;10.67;48.00;102212.13;4111331;28;20028;-65
2023/05/03 00:47:07;;;;;;;;;;;;;;;10.66;48.29;102215.84;4111569;28;20413;-65
2023/05/03 00:49:09;;;;;;;;;;;;;;;10.68;48.15;102221.13;4111407;28;19962;-65
2023/05/03 00:51:12;;;;;;;;;;;;;;;10.68;48.15;102211.16;4110840;28;19985;-65
2023/05/03 00:53:14;;;;;;;;;;;;;;;10.67;48.19;102216.69;4111730;28;20429;-65
2023/05/03 00:55:19;;;;;;;;;;;;;;;10.66;48.31;102213.16;4112419;28;20017;-65
2023/05/03 00:57:21;;;;;;;;;;;;;;;10.66;47.93;102217.69;4109764;28;20017;-66
2023/05/03 00:59:25;;;;;;;;;;;;;;;10.66;48.45;102217.69;4111327;28;19985;-66
2023/05/03 01:01:29;;;;;;;;;;;;;;;10.62;48.20;102217.97;4109750;28;19926;-65
2023/05/03 01:03:31;;;;;;;;;;;;;;;10.62;48.28;102214.41;4112199;28;20526;-66
2023/05/03 01:05:38;;;;;;;;;;;;;;;10.59;48.61;102218.25;4112666;28;19934;-66
2023/05/03 01:07:42;;;;;;;;;;;;;;;10.60;48.58;102214.56;4120033;28;19937;-66
2023/05/03 01:09:46;;;;;;;;;;;;;;;10.61;48.42;102216.28;4120580;28;19972;-66
2023/05/03 01:11:48;;;;;;;;;;;;;;;10.60;48.39;102208.31;4112132;28;20012;-65
2023/05/03 01:13:52;;;;;;;;;;;;;;;10.59;48.88;102207.44;4112920;28;20485;-65
2023/05/03 01:15:58;;;;;;;;;;;;;;;10.59;48.59;102215.53;4119006;28;20056;-65
2023/05/03 01:18:03;;;;;;;;;;;;;;;10.57;48.61;102208.59;4119596;28;20046;-66
2023/05/03 01:20:09;;;;;;;;;;;;;;;10.57;48.59;102211.28;4114521;28;20367;-66
2023/05/03 01:22:16;;;;;;;;;;;;;;;10.54;49.03;102214.28;4112086;28;20012;-66
2023/05/03 01:24:18;;;;;;;;;;;;;;;10.54;49.17;102216.97;4120393;28;20029;-66
2023/05/03 01:26:25;;;;;;;;;;;;;;;10.55;49.46;102208.72;4112066;28;20024;-66
2023/05/03 01:28:27;;;;;;;;;;;;;;;10.55;49.05;102208.72;4120456;28;19985;-65
2023/05/03 01:30:29;;;;;;;;;;;;;;;10.55;48.99;102211.44;4111997;28;20013;-66
2023/05/03 01:32:32;;;;;;;;;;;;;;;10.56;49.40;102214.97;4119180;28;20012;-65
2023/05/03 01:34:37;;;;;;;;;;;;;;;10.54;49.47;102211.56;4112585;28;20001;-66
2023/05/03 01:36:42;;;;;;;;;;;;;;;10.53;49.40;102213.44;4111684;28;20005;-66
2023/05/03 01:38:44;;;;;;;;;;;;;;;10.51;49.42;102223.50;4113764;28;20028;-65
2023/05/03 01:40:47;;;;;;;;;;;;;;;10.54;48.97;102222.38;4111308;28;20904;-65
2023/05/03 01:42:50;;;;;;;;;;;;;;;10.55;49.15;102218.66;4118158;28;20497;-65
2023/05/03 01:44:53;;;;;;;;;;;;;;;10.54;49.19;102214.28;4119449;28;20608;-66
2023/05/03 01:46:54;;;;;;;;;;;;;;;10.54;49.06;102214.28;4110853;28;20028;-65
2023/05/03 01:48:57;;;;;;;;;;;;;;;10.52;48.80;102219.81;4110806;28;20027;-66
2023/05/03 01:50:59;;;;;;;;;;;;;;;10.50;49.19;102210.13;4111844;28;19930;-65
2023/05/03 01:53:01;;;;;;;;;;;;;;;10.48;48.97;102214.84;4112698;28;20029;-65
2023/05/03 01:55:03;;;;;;;;;;;;;;;10.47;48.89;102214.00;4112462;28;20602;-65
2023/05/03 01:57:05;;;;;;;;;;;;;;;10.44;48.83;102212.41;4112372;28;20037;-65
2023/05/03 01:59:08;;;;;;;;;;;;;;;10.43;48.65;102207.16;4111375;28;20009;-65
2023/05/03 02:01:10;;;;;;;;;;;;;;;10.42;48.66;102210.84;4119214;28;20869;-65
2023/05/03 02:03:12;;;;;;;;;;;;;;;10.41;48.88;102219.94;4111036;28;20034;-65
2023/05/03 02:05:14;;;;;;;;;;;;;;;10.39;48.88;102213.81;4119653;28;20033;-65
2023/05/03 02:07:16;;;;;;;;;;;;;;;10.39;49.11;102219.22;4102660;28;20024;-66
2023/05/03 02:09:20;;;;;;;;;;;;;;;10.40;49.00;102226.34;4120167;28;20021;-65
2023/05/03 02:11:22;;;;;;;;;;;;;;;10.37;48.97;102232.84;4119217;28;20029;-65
2023/05/03 02:13:25;;;;;;;;;;;;;;;10.35;49.07;102226.75;4118665;28;20434;-65
2023/05/03 02:15:28;;;;;;;;;;;;;;;10.36;49.13;102227.59;4112904;28;20365;-65
2023/05/03 02:17:33;;;;;;;;;;;;;;;10.34;49.01;102225.03;4111216;28;20013;-66
2023/05/03 02:19:35;;;;;;;;;;;;;;;10.33;49.05;102228.75;4111155;28;20062;-65
2023/05/03 02:21:37;;;;;;;;;;;;;;;10.32;49.00;102226.16;4111702;28;20029;-65
2023/05/03 02:23:39;;;;;;;;;;;;;;;10.30;49.24;102229.00;4112467;28;20012;-65
2023/05/03 02:25:41;;;;;;;;;;;;;;;10.28;49.28;102228.25;4111916;28;20013;-65
2023/05/03 02:27:43;;;;;;;;;;;;;;;10.26;49.49;102227.53;4118821;28;20021;-65
2023/05/03 02:29:45;;;;;;;;;;;;;;;10.24;49.22;102237.66;4110375;28;20037;-65
2023/05/03 02:31:49;;;;;;;;;;;;;;;10.23;49.54;102238.63;4110145;28;19930;-65
2023/05/03 02:33:51;;;;;;;;;;;;;;;10.20;49.24;102228.97;4118919;28;20021;-65
2023/05/03 02:35:53;;;;;;;;;;;;;;;10.18;49.68;102230.09;4103356;28;20224;-66
2023/05/03 02:37:56;;;;;;;;;;;;;;;10.15;49.70;102231.22;4111021;28;20034;-65
2023/05/03 02:39:58;;;;;;;;;;;;;;;10.15;49.91;102233.91;4103204;28;20020;-65
2023/05/03 02:42:01;;;;;;;;;;;;;;;10.16;49.80;102235.63;4118115;28;20020;-66
2023/05/03 02:44:03;;;;;;;;;;;;;;;10.16;49.41;102237.50;4119710;28;20037;-66
2023/05/03 02:46:06;;;;;;;;;;;;;;;10.13;49.59;102241.31;4119167;28;19937;-65
2023/05/03 02:48:09;;;;;;;;;;;;;;;10.12;49.48;102242.28;4118383;28;20018;-66
2023/05/03 02:50:11;;;;;;;;;;;;;;;10.11;49.55;102248.69;4120215;28;20024;-65
2023/05/03 02:52:15;;;;;;;;;;;;;;;10.10;49.75;102247.81;4120590;28;19926;-65
2023/05/03 02:54:17;;;;;;;;;;;;;;;10.10;49.88;102252.38;4113810;28;20021;-65
2023/05/03 02:56:20;;;;;;;;;;;;;;;10.09;49.58;102245.25;4114970;28;20040;-65
2023/05/03 02:58:22;;;;;;;;;;;;;;;10.04;49.60;102248.38;4112904;28;20029;-65
2023/05/03 03:00:25;;;;;;;;;;;;;;;10.02;49.85;102244.97;4113359;28;20008;-65
2023/05/03 03:02:27;;;;;;;;;;;;;;;10.03;50.15;102243.97;4113223;28;20025;-66
2023/05/03 03:04:30;;;;;;;;;;;;;;;10.01;50.19;102258.59;4120400;28;20028;-65
2023/05/03 03:06:32;;;;;;;;;;;;;;;9.99;50.06;102258.72;4121181;28;20032;-65
2023/05/03 03:08:35;;;;;;;;;;;;;;;10.00;50.01;102254.16;4121653;28;20017;-65
2023/05/03 03:10:39;;;;;;;;;;;;;;;9.98;50.31;102254.31;4114989;28;20053;-65
2023/05/03 03:12:41;;;;;;;;;;;;;;;9.96;50.35;102253.59;4113062;28;20301;-65
2023/05/03 03:14:46;;;;;;;;;;;;;;;9.94;50.17;102255.59;4112725;28;20013;-66
2023/05/03 03:16:50;;;;;;;;;;;;;;;9.91;50.54;102256.69;4110907;28;19972;-65
2023/05/03 03:18:53;;;;;;;;;;;;;;;9.87;50.61;102257.97;4121825;28;20004;-66
2023/05/03 03:20:57;;;;;;;;;;;;;;;9.86;50.34;102260.81;4115007;28;19926;-66
2023/05/03 03:22:59;;;;;;;;;;;;;;;9.81;50.46;102263.03;4111750;28;20464;-66
2023/05/03 03:25:05;;;;;;;;;;;;;;;9.76;50.83;102268.00;4096670;28;20507;-66
2023/05/03 03:27:07;;;;;;;;;;;;;;;9.76;50.54;102266.16;4108540;28;20033;-65
2023/05/03 03:29:10;;;;;;;;;;;;;;;9.74;51.01;102274.38;4115688;28;20381;-66
2023/05/03 03:31:17;;;;;;;;;;;;;;;9.72;50.72;102265.56;4109292;28;20021;-66
2023/05/03 03:33:19;;;;;;;;;;;;;;;9.72;51.08;102270.13;4112653;28;20381;-66
2023/05/03 03:35:21;;;;;;;;;;;;;;;9.71;51.06;102273.78;4113423;28;20468;-66
2023/05/03 03:37:25;;;;;;;;;;;;;;;9.71;50.97;102279.19;4121233;28;20077;-66
2023/05/03 03:39:27;;;;;;;;;;;;;;;9.71;51.12;102281.88;4120863;28;20021;-67
2023/05/03 03:41:30;;;;;;;;;;;;;;;9.72;50.83;102276.34;4114086;28;20013;-67
2023/05/03 03:43:32;;;;;;;;;;;;;;;9.74;51.29;102281.63;4113012;28;20028;-66
2023/05/03 03:45:35;;;;;;;;;;;;;;;9.72;50.94;102283.59;4113623;28;20017;-66
2023/05/03 03:47:37;;;;;;;;;;;;;;;9.67;50.92;102284.00;4124411;28;20430;-66
2023/05/03 03:49:40;;;;;;;;;;;;;;;9.63;51.21;102279.84;4124359;28;20029;-66
2023/05/03 03:51:44;;;;;;;;;;;;;;;9.59;51.28;102286.50;4113734;28;20012;-66
2023/05/03 03:53:49;;;;;;;;;;;;;;;9.57;51.23;102286.63;4116083;28;20381;-66
2023/05/03 03:55:51;;;;;;;;;;;;;;;9.55;51.42;102285.91;4116852;28;19957;-65
2023/05/03 03:57:53;;;;;;;;;;;;;;;9.50;51.62;102284.63;4127118;28;19972;-66
2023/05/03 03:59:58;;;;;;;;;;;;;;;9.49;51.66;102290.97;4111160;28;19981;-66
2023/05/03 04:02:03;;;;;;;;;;;;;;;9.48;51.76;102297.34;4112701;28;20803;-66
2023/05/03 04:04:05;;;;;;;;;;;;;;;9.47;51.51;102296.50;4113687;28;19961;-66
2023/05/03 04:06:07;;;;;;;;;;;;;;;9.49;51.52;102301.78;4108740;28;20033;-66
2023/05/03 04:08:09;;;;;;;;;;;;;;;9.48;51.64;102303.63;4114946;28;20052;-66
2023/05/03 04:10:14;;;;;;;;;;;;;;;9.49;51.75;102305.31;4112213;28;20025;-66
2023/05/03 04:12:18;;;;;;;;;;;;;;;9.49;51.56;102309.88;4113159;28;20016;-66
2023/05/03 04:14:21;;;;;;;;;;;;;;;9.49;51.63;102310.72;4114287;28;19930;-66
2023/05/03 04:16:24;;;;;;;;;;;;;;;9.46;51.79;102308.28;4112445;28;20045;-66
2023/05/03 04:18:26;;;;;;;;;;;;;;;9.44;52.21;102322.91;4108105;28;20009;-66
2023/05/03 04:20:31;;;;;;;;;;;;;;;9.45;52.06;102316.50;4121878;28;20029;-66
2023/05/03 04:22:34;;;;;;;;;;;;;;;9.45;51.98;102320.06;4122484;28;20460;-66
2023/05/03 04:24:38;;;;;;;;;;;;;;;9.46;52.02;102320.91;4121755;28;20477;-66
2023/05/03 04:26:43;;;;;;;;;;;;;;;9.42;52.18;102320.34;4111528;28;20341;-65
2023/05/03 04:28:52;;;;;;;;;;;;;;;9.43;52.23;102329.25;4120333;28;20049;-66
2023/05/03 04:30:57;;;;;;;;;;;;;;;9.42;51.95;102323.03;4111543;28;20016;-66
2023/05/03 04:33:02;;;;;;;;;;;;;;;9.42;52.06;102330.25;4119929;28;20025;-66
2023/05/03 04:35:09;;;;;;;;;;;;;;;9.43;52.07;102324.72;4120418;28;20395;-66
2023/05/03 04:37:12;;;;;;;;;;;;;;;9.44;52.06;102333.69;4127190;28;20024;-68
2023/05/03 04:39:15;;;;;;;;;;;;;;;9.45;52.14;102332.69;4114176;28;20024;-66
2023/05/03 04:41:18;;;;;;;;;;;;;;;9.45;52.02;102338.94;4105122;28;20018;-66
2023/05/03 04:43:23;;;;;;;;;;;;;;;9.44;51.69;102341.78;4110806;28;20037;-66
2023/05/03 04:45:26;;;;;;;;;;;;;;;9.45;51.65;102341.66;4113110;28;20016;-66
2023/05/03 04:47:29;;;;;;;;;;;;;;;9.45;51.73;102344.34;4118518;28;20021;-65
2023/05/03 04:49:31;;;;;;;;;;;;;;;9.42;51.93;102341.91;4112384;28;20020;-66
2023/05/03 04:51:34;;;;;;;;;;;;;;;9.44;51.83;102339.06;4110505;28;20045;-66
2023/05/03 04:53:36;;;;;;;;;;;;;;;9.46;51.67;102346.03;4119621;28;20108;-66
2023/05/03 04:55:43;;;;;;;;;;;;;;;9.46;51.83;102347.88;4113665;28;19964;-66
2023/05/03 04:57:46;;;;;;;;;;;;;;;9.46;52.18;102339.78;4112245;28;20022;-66
2023/05/03 04:59:52;;;;;;;;;;;;;;;9.51;51.87;102345.63;4111544;28;20017;-66
2023/05/03 05:01:54;;;;;;;;;;;;;;;9.50;52.03;102346.66;4118039;28;20017;-65
2023/05/03 05:03:56;;;;;;;;;;;;;;;9.50;52.03;102349.34;4117970;28;20016;-66
2023/05/03 05:06:06;;;;;;;;;;;;;;;9.51;51.76;102357.31;4110868;28;20366;-66
2023/05/03 05:08:09;;;;;;;;;;;;;;;9.50;51.65;102352.88;4119693;28;20017;-66
2023/05/03 05:10:16;;;;;;;;;;;;;;;9.49;51.52;102353.03;4103339;28;20618;-65
2023/05/03 05:12:18;;;;;;;;;;;;;;;9.49;51.98;102358.41;4110243;28;20029;-66
2023/05/03 05:14:20;;;;;;;;;;;;;;;9.46;51.74;102351.44;4120169;28;20024;-66
2023/05/03 05:16:26;;;;;;;;;;;;;;;9.48;51.87;102356.69;4119702;28;20419;-66
2023/05/03 05:18:29;;;;;;;;;;;;;;;9.49;51.99;102353.03;4112006;28;20025;-66
2023/05/03 05:20:32;;;;;;;;;;;;;;;9.52;51.92;102361.69;4110249;28;20021;-66
2023/05/03 05:22:34;;;;;;;;;;;;;;;9.52;51.88;102356.31;4111774;28;20037;-66
2023/05/03 05:24:37;;;;;;;;;;;;;;;9.52;51.62;102353.59;4110836;28;20021;-67
2023/05/03 05:26:39;;;;;;;;;;;;;;;9.52;51.61;102356.31;4111931;28;20005;-66
2023/05/03 05:28:41;;;;;;;;;;;;;;;9.53;51.79;102363.41;4111440;28;20057;-66
2023/05/03 05:30:43;;;;;;;;;;;;;;;9.54;51.60;102365.13;4110416;28;20029;-66
2023/05/03 05:32:47;;;;;;;;;;;;;;;9.58;51.71;102365.72;4111242;28;20037;-66
2023/05/03 05:34:54;;;;;;;;;;;;;;;9.61;51.68;102361.88;4086035;28;20075;-66
2023/05/03 05:36:56;;;;;;;;;;;;;;;9.63;51.80;102368.03;4111132;28;20013;-66
2023/05/03 05:38:59;;;;;;;;;;;;;;;9.65;51.67;102369.59;4112589;28;20044;-66
2023/05/03 05:41:01;;;;;;;;;;;;;;;9.66;51.38;102367.78;4118666;28;20444;-66
2023/05/03 05:43:04;;;;;;;;;;;;;;;9.66;51.79;102371.31;4110201;28;20057;-66
2023/05/03 05:45:10;;;;;;;;;;;;;;;9.66;51.59;102367.78;4111019;28;20026;-66
2023/05/03 05:47:14;;;;;;;;;;;;;;;9.65;51.65;102374.97;4118409;28;20016;-66
2023/05/03 05:49:19;;;;;;;;;;;;;;;9.66;51.46;102381.25;4110439;28;20432;-66
2023/05/03 05:51:22;;;;;;;;;;;;;;;9.68;51.69;102377.44;4109978;28;20013;-66
2023/05/03 05:53:24;;;;;;;;;;;;;;;9.71;51.37;102379.84;4112412;28;20020;-67
2023/05/03 05:55:32;;;;;;;;;;;;;;;9.71;51.18;102387.09;4110421;28;20036;-67
2023/05/03 05:57:36;;;;;;;;;;;;;;;9.68;51.20;102385.53;4109638;28;19926;-67
2023/05/03 05:59:38;;;;;;;;;;;;;;;9.71;51.59;102389.81;4109150;28;20025;-66
2023/05/03 06:01:43;;;;;;;;;;;;;;;9.73;51.77;102386.00;4110886;28;20025;-66
2023/05/03 06:03:45;;;;;;;;;;;;;;;9.76;51.24;102386.72;4119111;28;20025;-66
2023/05/03 06:05:49;;;;;;;;;;;;;;;9.76;51.13;102384.88;4111459;28;20053;-67
2023/05/03 06:07:51;;;;;;;;;;;;;;;9.81;51.38;102384.47;4102581;28;20018;-65
2023/05/03 06:09:53;;;;;;;;;;;;;;;9.84;51.01;102385.09;4120099;28;20024;-65
2023/05/03 06:11:55;;;;;;;;;;;;;;;9.86;50.89;102393.06;4112129;28;20026;-65
2023/05/03 06:14:02;;;;;;;;;;;;;;;9.86;50.87;102385.81;4109563;28;20021;-66
2023/05/03 06:16:06;;;;;;;;;;;;;;;9.85;50.89;102392.19;4111205;28;20385;-66
2023/05/03 06:18:08;;;;;;;;;;;;;;;9.86;50.97;102398.44;4112988;28;20430;-66
2023/05/03 06:20:11;;;;;;;;;;;;;;;9.85;50.81;102402.97;4109918;28;20364;-66
2023/05/03 06:22:15;;;;;;;;;;;;;;;9.85;50.78;102396.72;4107058;28;20013;-66
2023/05/03 06:24:19;;;;;;;;;;;;;;;9.89;50.94;102407.13;4101594;28;20017;-66
2023/05/03 06:26:22;;;;;;;;;;;;;;;9.93;50.90;102400.47;4108263;28;20029;-66
2023/05/03 06:28:24;;;;;;;;;;;;;;;9.98;50.67;102408.16;4118116;28;20041;-66
2023/05/03 06:30:29;;;;;;;;;;;;;;;10.00;50.33;102397.22;4111902;28;20570;-65
2023/05/03 06:32:38;;;;;;;;;;;;;;;10.04;50.63;102410.34;4094118;28;20056;-65
2023/05/03 06:34:41;;;;;;;;;;;;;;;10.07;50.54;102407.38;4107547;28;19960;-66
2023/05/03 06:36:43;;;;;;;;;;;;;;;10.13;50.38;102399.75;4105274;28;20024;-65
2023/05/03 06:38:47;;;;;;;;;;;;;;;10.16;50.02;102404.88;4111723;28;19934;-65
2023/05/03 06:40:50;;;;;;;;;;;;;;;10.17;50.05;102401.16;4122282;28;20024;-65
2023/05/03 06:42:51;;;;;;;;;;;;;;;10.19;49.70;102410.88;4120719;28;20019;-65
2023/05/03 06:44:57;;;;;;;;;;;;;;;10.21;49.49;102408.88;4121773;28;20736;-65
2023/05/03 06:47:00;;;;;;;;;;;;;;;10.23;49.28;102401.47;4115409;28;20032;-65
2023/05/03 06:49:02;;;;;;;;;;;;;;;10.26;48.97;102401.22;4115770;28;20017;-65
2023/05/03 06:51:05;;;;;;;;;;;;;;;10.30;48.98;102399.13;4122399;28;20021;-65
2023/05/03 06:53:08;;;;;;;;;;;;;;;10.32;49.21;102405.25;4114449;28;20635;-65
2023/05/03 06:55:12;;;;;;;;;;;;;;;10.35;48.97;102398.75;4115787;28;20020;-65
2023/05/03 06:57:14;;;;;;;;;;;;;;;10.37;48.58;102403.00;4115720;28;20009;-65
2023/05/03 06:59:16;;;;;;;;;;;;;;;10.40;48.82;102407.28;4114316;28;20440;-65
2023/05/03 07:01:19;;;;;;;;;;;;;;;10.41;48.83;102403.63;4114118;28;20460;-65
2023/05/03 07:03:21;;;;;;;;;;;;;;;10.44;48.54;102408.75;4115777;28;20348;-65
2023/05/03 07:05:23;;;;;;;;;;;;;;;10.47;48.18;102405.78;4114585;28;20024;-66
2023/05/03 07:07:25;;;;;;;;;;;;;;;10.45;47.76;102403.22;4115614;28;20409;-66
2023/05/03 07:09:27;;;;;;;;;;;;;;;10.42;47.67;102403.47;4115767;28;20025;-66
2023/05/03 07:11:30;;;;;;;;;;;;;;;10.43;47.74;102399.78;4115508;28;20032;-66
2023/05/03 07:13:32;;;;;;;;;;;;;;;10.48;47.59;102398.53;4114744;28;20615;-66
2023/05/03 07:15:36;;;;;;;;;;;;;;;10.51;46.92;102404.50;4114416;28;20013;-66
2023/05/03 07:17:38;;;;;;;;;;;;;;;10.57;46.55;102413.91;4115283;28;20029;-66
2023/05/03 07:19:40;;;;;;;;;;;;;;;10.59;46.50;102411.94;4114925;28;19933;-66
2023/05/03 07:21:42;;;;;;;;;;;;;;;10.62;46.20;102411.66;4115249;28;20355;-66
2023/05/03 07:23:44;;;;;;;;;;;;;;;10.65;46.34;102405.97;4114739;28;20017;-66
2023/05/03 07:25:46;;;;;;;;;;;;;;;10.64;45.50;102405.13;4114493;28;20042;-66
2023/05/03 07:27:49;;;;;;;;;;;;;;;10.65;46.27;102408.69;4114414;28;20031;-66
2023/05/03 07:29:52;;;;;;;;;;;;;;;10.69;46.61;102407.44;4115393;28;20030;-65
2023/05/03 07:31:54;;;;;;;;;;;;;;;10.70;46.49;102398.31;4113836;28;20485;-66
2023/05/03 07:33:56;;;;;;;;;;;;;;;10.75;46.85;102403.31;4114135;28;20024;-66
2023/05/03 07:35:58;;;;;;;;;;;;;;;10.79;46.67;102408.28;4114541;28;20041;-65
2023/05/03 07:38:00;;;;;;;;;;;;;;;10.81;47.02;102409.03;4114350;28;20024;-66
2023/05/03 07:40:05;;;;;;;;;;;;;;;10.82;46.47;102404.47;4114499;28;19981;-65
2023/05/03 07:42:07;;;;;;;;;;;;;;;10.84;45.97;102416.00;4112946;28;20077;-66
2023/05/03 07:44:10;;;;;;;;;;;;;;;10.81;45.70;102409.03;4114497;28;20017;-66
2023/05/03 07:46:13;;;;;;;;;;;;;;;10.78;45.57;102403.91;4113580;28;20381;-65
2023/05/03 07:48:15;;;;;;;;;;;;;;;10.79;46.00;102402.88;4114500;28;20017;-66
2023/05/03 07:50:17;;;;;;;;;;;;;;;10.84;46.43;102399.78;4114679;28;20029;-65
2023/05/03 07:52:19;;;;;;;;;;;;;;;10.89;46.19;102393.94;4113655;28;20025;-66
2023/05/03 07:54:21;;;;;;;;;;;;;;;10.91;46.15;102402.78;4114803;28;20017;-66
2023/05/03 07:56:24;;;;;;;;;;;;;;;10.93;45.97;102390.00;4114296;28;20018;-66
2023/05/03 07:58:26;;;;;;;;;;;;;;;10.97;45.47;102389.56;4114500;28;20014;-66
2023/05/03 08:00:29;;;;;;;;;;;;;;;11.00;45.38;102394.72;4113582;28;19930;-66
2023/05/03 08:02:31;;;;;;;;;;;;;;;11.02;45.71;102389.16;4113727;28;20367;-66
2023/05/03 08:04:33;;;;;;;;;;;;;;;11.01;45.69;102395.56;4114941;28;20449;-65
2023/05/03 08:06:37;;;;;;;;;;;;;;;11.03;46.24;102390.84;4114512;28;20013;-66
2023/05/03 08:08:39;;;;;;;;;;;;;;;11.06;45.83;102392.44;4114211;28;20444;-66
2023/05/03 08:10:41;;;;;;;;;;;;;;;11.11;45.99;102385.63;4114311;28;20013;-66
2023/05/03 08:12:43;;;;;;;;;;;;;;;11.14;46.05;102393.44;4114472;28;20020;-66
2023/05/03 08:14:45;;;;;;;;;;;;;;;11.15;45.85;102392.44;4114072;28;20375;-66
2023/05/03 08:16:48;;;;;;;;;;;;;;;11.15;45.58;102389.72;4113005;28;20018;-66
2023/05/03 08:18:50;;;;;;;;;;;;;;;11.15;45.05;102395.13;4112664;28;20013;-66
2023/05/03 08:20:52;;;;;;;;;;;;;;;11.07;44.83;102376.06;4115065;28;20367;-66
2023/05/03 08:22:55;;;;;;;;;;;;;;;11.13;44.40;102385.47;4113766;28;20029;-66
2023/05/03 08:24:57;;;;;;;;;;;;;;;11.07;44.48;102388.75;4114449;28;20821;-66
2023/05/03 08:26:59;;;;;;;;;;;;;;;11.00;44.34;102394.72;4113449;28;20045;-66
2023/05/03 08:29:03;;;;;;;;;;;;;;;10.94;44.54;102389.84;4113303;28;20032;-66
2023/05/03 08:31:05;;;;;;;;;;;;;;;10.91;44.85;102382.03;4113750;28;20029;-66
2023/05/03 08:33:09;;;;;;;;;;;;;;;10.88;44.95;102385.00;4113010;28;20373;-66
2023/05/03 08:35:12;;;;;;;;;;;;;;;10.89;45.34;102381.28;4113830;28;20452;-66
2023/05/03 08:37:15;;;;;;;;;;;;;;;10.90;44.94;102384.88;4113741;28;20017;-66
2023/05/03 08:39:17;;;;;;;;;;;;;;;10.94;45.33;102387.16;4113723;28;20021;-66
2023/05/03 08:41:22;;;;;;;;;;;;;;;11.00;45.60;102383.00;4114381;28;20058;-65
2023/05/03 08:43:24;;;;;;;;;;;;;;;11.03;44.91;102382.75;4113161;28;20022;-66
2023/05/03 08:45:26;;;;;;;;;;;;;;;11.08;45.35;102390.44;4114437;28;20016;-66
2023/05/03 08:47:32;;;;;;;;;;;;;;;11.11;45.69;102382.91;4113938;28;20024;-66
2023/05/03 08:49:35;;;;;;;;;;;;;;;11.16;45.54;102391.44;4114151;28;20021;-67
2023/05/03 08:51:37;;;;;;;;;;;;;;;11.17;45.23;102401.28;4113446;28;20029;-66
2023/05/03 08:53:39;;;;;;;;;;;;;;;11.18;45.04;102394.84;4112768;28;20024;-66
2023/05/03 08:55:41;;;;;;;;;;;;;;;11.16;44.57;102399.56;4111224;28;20373;-66
2023/05/03 08:57:43;;;;;;;;;;;;;;;11.13;44.67;102397.13;4114137;28;20013;-66
2023/05/03 08:59:48;;;;;;;;;;;;;;;11.12;44.76;102399.97;4113915;28;20005;-67
2023/05/03 09:01:50;;;;;;;;;;;;;;;11.12;44.54;102397.28;4113019;28;19937;-67
2023/05/03 09:03:52;;;;;;;;;;;;;;;11.13;45.01;102393.59;4112885;28;20037;-67
2023/05/03 09:06:00;;;;;;;;;;;;;;;11.13;44.76;102402.53;4114112;28;20393;-67
2023/05/03 09:08:03;;;;;;;;;;;;;;;11.13;43.92;102399.84;4120141;28;20029;-66
2023/05/03 09:10:11;;;;;;;;;;;;;;;11.11;44.17;102399.13;4108106;28;20020;-67
2023/05/03 09:12:13;;;;;;;;;;;;;;;11.15;44.57;102397.84;4112946;28;20369;-67
2023/05/03 09:14:15;;;;;;;;;;;;;;;11.18;44.61;102402.97;4113397;28;20349;-67
2023/05/03 09:16:28;;;;;;;;;;;;;;;11.20;44.33;102407.41;4112955;28;20012;-67
2023/05/03 09:18:30;;;;;;;;;;;;;;;11.23;44.17;102401.72;4113713;28;20025;-67
2023/05/03 09:20:33;;;;;;;;;;;;;;;11.25;44.18;102407.81;4109050;28;20371;-67
2023/05/03 09:22:37;;;;;;;;;;;;;;;11.25;43.58;102402.41;4107637;28;19935;-67
2023/05/03 09:24:39;;;;;;;;;;;;;;;11.26;43.37;102404.13;4110177;28;20412;-67
2023/05/03 09:26:41;;;;;;;;;;;;;;;11.23;43.11;102399.84;4110125;28;20025;-67
2023/05/03 09:28:43;;;;;;;;;;;;;;;11.25;44.08;102402.41;4109370;28;20017;-67
2023/05/03 09:30:46;;;;;;;;;;;;;;;11.30;44.48;102402.84;4106564;28;20021;-67
2023/05/03 09:32:49;;;;;;;;;;;;;;;11.31;43.33;102408.09;4113575;28;20085;-67
2023/05/03 09:34:51;;;;;;;;;;;;;;;11.34;43.53;102406.97;4113865;28;20024;-67
2023/05/03 09:36:53;;;;;;;;;;;;;;;11.39;43.62;102402.00;4112452;28;20053;-67
2023/05/03 09:38:57;;;;;;;;;;;;;;;11.43;44.44;102408.84;4113535;28;20021;-67
2023/05/03 09:41:00;;;;;;;;;;;;;;;11.43;44.14;102403.44;4113533;28;20632;-67
2023/05/03 09:43:05;;;;;;;;;;;;;;;11.45;43.99;102403.28;4113115;28;19937;-67
2023/05/03 09:45:08;;;;;;;;;;;;;;;11.44;44.47;102409.69;4113245;28;20021;-67
2023/05/03 09:47:10;;;;;;;;;;;;;;;11.47;44.36;102399.44;4112776;28;20481;-67
2023/05/03 09:49:13;;;;;;;;;;;;;;;11.50;44.64;102404.59;4111048;28;20017;-66
2023/05/03 09:51:14;;;;;;;;;;;;;;;11.53;44.23;102406.97;4112884;28;20020;-67
2023/05/03 09:53:17;;;;;;;;;;;;;;;11.51;43.65;102398.16;4109729;28;20024;-67
2023/05/03 09:55:26;;;;;;;;;;;;;;;11.51;43.61;102387.31;4111313;28;20016;-67
2023/05/03 09:57:28;;;;;;;;;;;;;;;11.47;43.80;102385.06;4113020;28;20020;-67
2023/05/03 09:59:30;;;;;;;;;;;;;;;11.49;43.64;102385.78;4112254;28;20026;-67
2023/05/03 10:01:32;;;;;;;;;;;;;;;11.52;43.91;102393.63;4116870;28;20029;-67
2023/05/03 10:03:37;;;;;;;;;;;;;;;11.51;43.12;102387.31;4115708;28;19937;-67
2023/05/03 10:05:41;;;;;;;;;;;;;;;11.53;44.02;102388.03;4115161;28;20445;-67
2023/05/03 10:07:43;;;;;;;;;;;;;;;11.58;44.38;102386.75;4112663;28;20013;-67
2023/05/03 10:09:47;;;;;;;;;;;;;;;11.63;43.79;102389.88;4115957;28;20013;-67
2023/05/03 10:11:52;;;;;;;;;;;;;;;11.63;43.56;102387.16;4114360;28;20021;-67
2023/05/03 10:13:54;;;;;;;;;;;;;;;11.64;43.77;102389.75;4117190;28;20017;-67
2023/05/03 10:15:57;;;;;;;;;;;;;;;11.71;44.30;102379.22;4117289;28;20021;-68
2023/05/03 10:17:59;;;;;;;;;;;;;;;11.72;44.21;102381.78;4115949;28;20020;-68
2023/05/03 10:20:05;;;;;;;;;;;;;;;11.77;43.66;102385.88;4116166;28;19997;-67
2023/05/03 10:22:10;;;;;;;;;;;;;;;11.77;43.86;102388.59;4122151;28;20026;-67
2023/05/03 10:24:13;;;;;;;;;;;;;;;11.75;43.82;102380.59;4112663;28;20540;-67
2023/05/03 10:26:15;;;;;;;;;;;;;;;11.78;43.72;102379.47;4115634;28;20367;-68
2023/05/03 10:28:20;;;;;;;;;;;;;;;11.79;44.24;102375.78;4116041;28;20555;-68
2023/05/03 10:30:29;;;;;;;;;;;;;;;11.82;44.42;102391.72;4114844;28;20025;-68
2023/05/03 10:32:35;;;;;;;;;;;;;;;11.86;44.53;102385.84;4116061;28;20044;-68
2023/05/03 10:34:39;;;;;;;;;;;;;;;11.89;44.05;102393.69;4115102;28;20013;-68
2023/05/03 10:36:42;;;;;;;;;;;;;;;11.90;44.20;102379.16;4114743;28;20059;-67